createdAt,value
2022-08-24T00:02:01.426Z,99862.47
2022-08-24T00:04:32.103Z,99873.13
2022-08-24T00:07:02.163Z,99867.81
2022-08-24T00:09:32.415Z,99870.47
2022-08-24T00:12:00.722Z,99877.59
2022-08-24T00:14:28.135Z,99877.59
2022-08-24T00:16:55.577Z,99872.25
2022-08-24T00:19:23.445Z,99881.16
2022-08-24T00:21:52.101Z,99883.81
2022-08-24T00:24:20.750Z,99882.91
2022-08-24T00:26:48.829Z,99881.16
2022-08-24T00:29:18.312Z,99880.25
2022-08-24T00:31:45.676Z,99878.47
2022-08-24T00:34:13.902Z,99886.47
2022-08-24T00:36:42.340Z,99882.91
2022-08-24T00:39:10.376Z,99880.25
2022-08-24T00:41:44.376Z,99883.81
2022-08-24T00:44:13.978Z,99881.16
2022-08-24T00:47:07.567Z,99883.81
2022-08-24T00:50:12.186Z,99879.38
2022-08-24T00:52:50.428Z,99871.38
2022-08-24T00:55:27.148Z,99875.78
2022-08-24T00:58:03.444Z,99873.13
2022-08-24T01:00:40.703Z,99870.44
2022-08-24T01:03:14.097Z,99872.22
2022-08-24T01:05:41.939Z,99873.09
2022-08-24T01:08:12.597Z,99862.44
2022-08-24T01:11:02.048Z,99867.78
2022-08-24T01:13:31.197Z,99867.78
2022-08-24T01:16:03.771Z,99874.00
2022-08-24T01:18:49.976Z,99868.66
2022-08-24T01:21:32.245Z,99874.84
2022-08-24T01:24:05.638Z,99878.41
2022-08-24T01:26:47.510Z,99868.66
2022-08-24T01:29:23.679Z,99868.66
2022-08-24T01:31:52.690Z,99863.31
2022-08-24T01:34:21.340Z,99868.66
2022-08-24T01:36:56.191Z,99863.34
2022-08-24T01:39:32.991Z,99861.53
2022-08-24T01:42:01.767Z,99861.53
2022-08-24T01:44:34.630Z,99850.88
2022-08-24T01:47:07.552Z,99857.97
2022-08-24T01:49:41.631Z,99858.88
2022-08-24T01:52:15.485Z,99852.63
2022-08-24T01:54:43.708Z,99860.66
2022-08-24T01:57:14.952Z,99856.19
2022-08-24T01:59:44.333Z,99860.66
2022-08-24T02:02:26.147Z,99860.63
2022-08-24T02:04:54.164Z,99859.72
2022-08-24T02:07:22.676Z,99859.72
2022-08-24T02:09:50.823Z,99857.97
2022-08-24T02:12:19.840Z,99857.06
2022-08-24T02:14:48.142Z,99863.25
2022-08-24T02:17:16.079Z,99864.16
2022-08-24T02:19:44.008Z,99861.47
2022-08-24T02:22:12.230Z,99863.25
2022-08-24T02:24:40.309Z,99860.56
2022-08-24T02:27:08.264Z,99875.59
2022-08-24T02:29:35.965Z,99859.56
2022-08-24T02:32:04.577Z,99864.00
2022-08-24T02:34:31.861Z,99864.84
2022-08-24T02:36:59.898Z,99869.28
2022-08-24T02:39:28.145Z,99872.81
2022-08-24T02:41:56.464Z,99867.50
2022-08-24T02:44:24.009Z,99872.81
2022-08-24T02:46:51.236Z,99866.59
2022-08-24T02:49:21.313Z,99863.03
2022-08-24T02:51:50.590Z,99862.13
2022-08-24T02:54:21.095Z,99863.00
2022-08-24T02:56:51.578Z,99860.34
2022-08-24T02:59:19.231Z,99865.63
2022-08-24T03:01:49.819Z,99865.63
2022-08-24T03:04:19.240Z,99858.53
2022-08-24T03:06:47.369Z,99857.66
2022-08-24T03:09:15.401Z,99866.53
2022-08-24T03:11:45.157Z,99860.25
2022-08-24T03:14:14.357Z,99861.16
2022-08-24T03:16:42.388Z,99861.16
2022-08-24T03:19:09.853Z,99865.56
2022-08-24T03:21:38.542Z,99862.88
2022-08-24T03:24:06.335Z,99864.59
2022-08-24T03:26:34.282Z,99859.28
2022-08-24T03:29:01.957Z,99868.16
2022-08-24T03:31:32.489Z,99863.72
2022-08-24T03:34:00.574Z,99863.72
2022-08-24T03:36:28.099Z,99866.38
2022-08-24T03:38:55.521Z,99866.38
2022-08-24T03:41:23.738Z,99876.09
2022-08-24T03:43:51.270Z,99865.41
2022-08-24T03:46:29.288Z,99870.75
2022-08-24T03:48:58.833Z,99871.66
2022-08-24T03:51:29.185Z,99869.81
2022-08-24T03:54:02.257Z,99865.41
2022-08-24T03:56:29.888Z,99862.75
2022-08-24T03:58:57.736Z,99865.41
2022-08-24T04:01:28.913Z,99866.28
2022-08-24T04:03:56.831Z,99865.38
2022-08-24T04:06:29.764Z,99864.41
2022-08-24T04:08:57.549Z,99867.09
2022-08-24T04:11:29.448Z,99873.31
2022-08-24T04:13:58.822Z,99868.00
2022-08-24T04:16:28.994Z,99868.06
2022-08-24T04:19:08.284Z,99866.28
2022-08-24T04:21:37.479Z,99865.38
2022-08-24T04:24:10.388Z,99867.06
2022-08-24T04:26:44.894Z,99877.66
2022-08-24T04:29:19.376Z,99875.00
2022-08-24T04:31:53.391Z,99879.38
2022-08-24T04:34:21.550Z,99883.78
2022-08-24T04:36:49.335Z,99884.66
2022-08-24T04:39:16.709Z,99887.34
2022-08-24T04:42:07.114Z,99889.09
2022-08-24T04:44:39.688Z,99888.19
2022-08-24T04:47:08.385Z,99890.84
2022-08-24T04:49:38.190Z,99895.31
2022-08-24T04:52:08.238Z,99896.16
2022-08-24T04:54:35.748Z,99896.25
2022-08-24T04:57:12.505Z,99899.84
2022-08-24T04:59:43.850Z,99897.16
2022-08-24T05:02:12.807Z,99908.72
2022-08-24T05:04:40.416Z,99912.22
2022-08-24T05:07:08.337Z,99914.94
2022-08-24T05:09:35.709Z,99906.13
2022-08-24T05:12:03.875Z,99908.78
2022-08-24T05:14:36.481Z,99906.13
2022-08-24T05:17:04.132Z,99905.25
2022-08-24T05:19:32.535Z,99905.25
2022-08-24T05:22:00.775Z,99911.47
2022-08-24T05:24:28.554Z,99907.94
2022-08-24T05:26:56.979Z,99912.38
2022-08-24T05:29:27.058Z,99919.53
2022-08-24T05:31:54.773Z,99920.44
2022-08-24T05:34:23.875Z,99921.34
2022-08-24T05:36:51.615Z,99923.16
2022-08-24T05:39:31.077Z,99925.88
2022-08-24T05:41:59.867Z,99920.59
2022-08-24T05:44:31.384Z,99921.50
2022-08-24T05:47:02.877Z,99911.78
2022-08-24T05:49:31.244Z,99917.13
2022-08-24T05:51:59.710Z,99916.28
2022-08-24T05:54:27.062Z,99917.28
2022-08-24T05:57:06.330Z,99919.97
2022-08-24T05:59:40.681Z,99921.75
2022-08-24T06:02:15.440Z,99925.38
2022-08-24T06:04:43.131Z,99927.19
2022-08-24T06:07:13.609Z,99928.97
2022-08-24T06:09:44.782Z,99929.88
2022-08-24T06:12:14.192Z,99929.00
2022-08-24T06:14:47.842Z,99928.13
2022-08-24T06:17:18.015Z,99931.69
2022-08-24T06:19:45.569Z,99932.59
2022-08-24T06:22:12.931Z,99929.94
2022-08-24T06:24:59.915Z,99936.19
2022-08-24T06:27:29.447Z,99932.66
2022-08-24T06:30:05.709Z,99937.09
2022-08-24T06:33:02.260Z,99936.22
2022-08-24T06:35:46.855Z,99939.78
2022-08-24T06:38:14.724Z,99937.09
2022-08-24T06:40:43.771Z,99939.78
2022-08-24T06:43:11.737Z,99945.97
2022-08-24T06:45:54.845Z,99936.19
2022-08-24T06:48:27.957Z,99941.50
2022-08-24T06:50:56.100Z,99938.81
2022-08-24T06:53:23.856Z,99944.13
2022-08-24T06:55:56.878Z,99943.22
2022-08-24T06:58:28.312Z,99949.38
2022-08-24T07:00:57.030Z,99948.50
2022-08-24T07:03:25.757Z,99947.56
2022-08-24T07:06:04.813Z,99960.00
2022-08-24T07:08:43.097Z,99948.41
2022-08-24T07:11:17.967Z,99951.06
2022-08-24T07:13:50.165Z,99954.53
2022-08-24T07:16:20.634Z,99953.59
2022-08-24T07:18:52.038Z,99958.00
2022-08-24T07:21:22.452Z,99959.72
2022-08-24T07:23:59.091Z,99958.84
2022-08-24T07:26:30.188Z,99963.28
2022-08-24T07:29:07.616Z,99969.50
2022-08-24T07:31:42.961Z,99968.50
2022-08-24T07:34:42.458Z,99969.31
2022-08-24T07:37:09.994Z,99968.38
2022-08-24T07:39:41.065Z,99967.47
2022-08-24T07:42:13.758Z,99967.38
2022-08-24T07:44:45.236Z,99966.41
2022-08-24T07:47:37.091Z,99973.53
2022-08-24T07:50:02.080Z,99974.34
2022-08-24T07:52:30.350Z,99977.00
2022-08-24T07:54:58.140Z,99976.88
2022-08-24T07:57:25.746Z,99976.03
2022-08-24T07:59:55.428Z,99979.50
2022-08-24T08:02:22.765Z,99977.66
2022-08-24T08:04:56.548Z,99977.63
2022-08-24T08:07:23.821Z,99979.34
2022-08-24T08:09:52.174Z,99980.28
2022-08-24T08:12:19.610Z,99985.53
2022-08-24T08:14:57.374Z,99973.03
2022-08-24T08:17:25.305Z,99979.19
2022-08-24T08:19:52.865Z,99979.91
2022-08-24T08:22:39.541Z,99979.16
2022-08-24T08:25:27.095Z,99971.03
2022-08-24T08:27:56.851Z,99965.59
2022-08-24T08:30:28.557Z,99976.34
2022-08-24T08:32:55.989Z,99969.97
2022-08-24T08:35:23.292Z,99964.53
2022-08-24T08:37:50.815Z,99964.47
2022-08-24T08:40:45.112Z,99959.81
2022-08-24T08:43:48.858Z,99955.34
2022-08-24T08:46:56.969Z,99964.31
2022-08-24T08:50:04.426Z,99955.25
2022-08-24T08:53:28.785Z,99957.63
2022-08-24T08:56:52.529Z,99967.38
2022-08-24T08:59:51.752Z,99964.72
2022-08-24T09:02:50.657Z,99962.09
2022-08-24T09:05:47.281Z,99960.06
2022-08-24T09:08:40.441Z,99960.19
2022-08-24T09:11:49.560Z,99959.31
2022-08-24T09:15:10.462Z,99960.34
2022-08-24T09:17:47.956Z,99952.25
2022-08-24T09:20:28.963Z,99959.22
2022-08-24T09:23:54.327Z,99949.91
2022-08-24T09:26:50.772Z,99952.56
2022-08-24T09:29:43.212Z,99955.22
2022-08-24T09:33:09.034Z,99952.44
2022-08-24T09:36:13.978Z,99945.97
2022-08-24T09:39:32.361Z,99944.13
2022-08-24T09:42:37.213Z,99941.38
2022-08-24T09:46:06.757Z,99938.00
2022-08-24T09:49:02.059Z,99939.69
2022-08-24T09:52:21.481Z,99937.66
2022-08-24T09:55:04.789Z,99947.47
2022-08-24T09:58:30.172Z,99942.09
2022-08-24T10:01:36.669Z,99935.41
2022-08-24T10:05:02.103Z,99932.06
2022-08-24T10:08:25.753Z,99930.63
2022-08-24T10:11:02.542Z,99930.41
2022-08-24T10:14:03.813Z,99927.34
2022-08-24T10:17:05.318Z,99922.13
2022-08-24T10:20:23.771Z,99911.25
2022-08-24T10:23:27.135Z,99907.22
2022-08-24T10:26:23.741Z,99915.78
2022-08-24T10:29:26.049Z,99913.81
2022-08-24T10:32:47.923Z,99913.03
2022-08-24T10:35:38.949Z,99920.66
2022-08-24T10:38:48.925Z,99912.19
2022-08-24T10:41:29.209Z,99904.34
2022-08-24T10:44:25.008Z,99916.69
2022-08-24T10:47:07.084Z,99913.56
2022-08-24T10:49:37.385Z,99918.72
2022-08-24T10:52:30.158Z,99905.88
2022-08-24T10:55:31.464Z,99904.06
2022-08-24T10:58:34.281Z,99905.97
2022-08-24T11:01:33.865Z,99901.31
2022-08-24T11:04:12.336Z,99895.84
2022-08-24T11:07:01.490Z,99890.84
2022-08-24T11:10:01.140Z,99898.34
2022-08-24T11:12:40.277Z,99894.19
2022-08-24T11:15:24.852Z,99893.47
2022-08-24T11:18:01.066Z,99891.47
2022-08-24T11:20:43.037Z,99885.25
2022-08-24T11:23:22.361Z,99883.59
2022-08-24T11:26:06.551Z,99881.34
2022-08-24T11:28:54.817Z,99882.25
2022-08-24T11:31:44.434Z,99872.13
2022-08-24T11:34:37.861Z,99875.94
2022-08-24T11:37:15.751Z,99876.31
2022-08-24T11:39:43.207Z,99883.78
2022-08-24T11:42:55.152Z,99880.03
2022-08-24T11:46:00.377Z,99877.06
2022-08-24T11:48:57.421Z,99875.16
2022-08-24T11:52:11.837Z,99876.72
2022-08-24T11:55:10.772Z,99872.38
2022-08-24T11:58:43.522Z,99871.00
2022-08-24T12:01:36.390Z,99879.28
2022-08-24T12:04:57.793Z,99873.38
2022-08-24T12:08:14.727Z,99868.38
2022-08-24T12:11:07.111Z,99861.66
2022-08-24T12:14:14.868Z,99864.75
2022-08-24T12:17:19.052Z,99871.00
2022-08-24T12:20:01.301Z,99869.88
2022-08-24T12:22:31.652Z,99861.75
2022-08-24T12:25:25.377Z,99870.34
2022-08-24T12:27:54.269Z,99863.47
2022-08-24T12:30:22.641Z,99861.50
2022-08-24T12:33:14.002Z,99856.31
2022-08-24T12:35:46.469Z,99856.16
2022-08-24T12:38:28.077Z,99854.97
2022-08-24T12:41:21.123Z,99855.59
2022-08-24T12:43:58.818Z,99854.88
2022-08-24T12:46:27.216Z,99855.97
2022-08-24T12:49:05.414Z,99847.72
2022-08-24T12:52:22.879Z,99850.31
2022-08-24T12:55:14.169Z,99840.88
2022-08-24T12:58:54.601Z,99847.31
2022-08-24T13:01:29.805Z,99841.91
2022-08-24T13:04:39.029Z,99846.00
2022-08-24T13:07:30.974Z,99852.59
2022-08-24T13:09:58.082Z,99838.50
2022-08-24T13:12:46.265Z,99831.97
2022-08-24T13:15:31.748Z,99831.38
2022-08-24T13:18:14.197Z,99840.50
2022-08-24T13:20:44.636Z,99831.59
2022-08-24T13:23:24.432Z,99825.34
2022-08-24T13:25:59.072Z,99826.09
2022-08-24T13:28:47.801Z,99826.19
2022-08-24T13:31:38.592Z,99824.06
2022-08-24T13:34:16.693Z,99813.16
2022-08-24T13:37:22.639Z,99818.66
2022-08-24T13:40:25.842Z,99820.66
2022-08-24T13:43:19.577Z,99817.44
2022-08-24T13:46:13.260Z,99816.44
2022-08-24T13:49:21.072Z,99817.44
2022-08-24T13:52:14.928Z,99823.84
2022-08-24T13:55:20.601Z,99816.94
2022-08-24T13:58:43.462Z,99813.50
2022-08-24T14:01:33.230Z,99814.88
2022-08-24T14:04:25.000Z,99806.84
2022-08-24T14:07:29.329Z,99800.03
2022-08-24T14:10:09.149Z,99799.84
2022-08-24T14:13:04.912Z,99800.63
2022-08-24T14:16:25.106Z,99801.75
2022-08-24T14:19:07.173Z,99798.22
2022-08-24T14:22:03.855Z,99796.28
2022-08-24T14:25:14.650Z,99798.13
2022-08-24T14:28:06.924Z,99788.97
2022-08-24T14:30:43.326Z,99792.09
2022-08-24T14:33:30.303Z,99786.97
2022-08-24T14:36:39.185Z,99789.69
2022-08-24T14:39:43.895Z,99791.13
2022-08-24T14:43:19.392Z,99784.03
2022-08-24T14:46:06.760Z,99786.78
2022-08-24T14:49:39.091Z,99783.53
2022-08-24T14:53:02.037Z,99784.81
2022-08-24T14:56:10.373Z,99783.09
2022-08-24T14:59:06.871Z,99776.56
2022-08-24T15:01:48.355Z,99776.94
2022-08-24T15:04:43.681Z,99777.69
2022-08-24T15:08:01.530Z,99774.44
2022-08-24T15:10:51.220Z,99774.66
2022-08-24T15:13:59.512Z,99774.78
2022-08-24T15:16:39.000Z,99767.47
2022-08-24T15:19:54.900Z,99769.06
2022-08-24T15:22:58.255Z,99775.38
2022-08-24T15:26:04.793Z,99766.28
2022-08-24T15:28:34.596Z,99771.53
2022-08-24T15:31:10.900Z,99769.47
2022-08-24T15:34:02.317Z,99771.84
2022-08-24T15:36:36.439Z,99772.09
2022-08-24T15:39:05.945Z,99770.94
2022-08-24T15:41:47.149Z,99767.25
2022-08-24T15:44:24.679Z,99773.56
2022-08-24T15:47:13.747Z,99772.56
2022-08-24T15:50:21.069Z,99770.63
2022-08-24T15:53:06.948Z,99778.66
2022-08-24T15:55:42.862Z,99767.19
2022-08-24T15:58:37.547Z,99776.69
2022-08-24T16:01:32.488Z,99784.91
2022-08-24T16:04:16.379Z,99772.47
2022-08-24T16:06:48.821Z,99768.63
2022-08-24T16:09:20.925Z,99769.63
2022-08-24T16:11:57.170Z,99775.09
2022-08-24T16:14:31.686Z,99772.06
2022-08-24T16:17:34.716Z,99776.06
2022-08-24T16:20:14.041Z,99777.41
2022-08-24T16:23:31.557Z,99781.91
2022-08-24T16:26:32.010Z,99782.53
2022-08-24T16:29:00.411Z,99777.84
2022-08-24T16:31:51.912Z,99777.63
2022-08-24T16:34:29.828Z,99771.97
2022-08-24T16:36:57.977Z,99777.75
2022-08-24T16:39:26.045Z,99772.97
2022-08-24T16:42:06.489Z,99779.03
2022-08-24T16:44:39.777Z,99775.56
2022-08-24T16:47:08.606Z,99778.88
2022-08-24T16:49:37.628Z,99787.41
2022-08-24T16:52:05.352Z,99784.69
2022-08-24T16:54:33.226Z,99782.06
2022-08-24T16:57:14.985Z,99783.63
2022-08-24T16:59:46.851Z,99789.31
2022-08-24T17:02:17.005Z,99788.84
2022-08-24T17:04:45.886Z,99790.31
2022-08-24T17:07:21.348Z,99786.44
2022-08-24T17:09:49.448Z,99784.28
2022-08-24T17:12:17.233Z,99791.38
2022-08-24T17:14:44.951Z,99801.13
2022-08-24T17:17:22.153Z,99798.84
2022-08-24T17:19:53.569Z,99804.94
2022-08-24T17:22:28.396Z,99805.59
2022-08-24T17:24:55.764Z,99799.81
2022-08-24T17:27:32.411Z,99810.97
2022-08-24T17:30:03.794Z,99811.97
2022-08-24T17:32:31.918Z,99810.41
2022-08-24T17:34:59.246Z,99808.88
2022-08-24T17:37:27.160Z,99808.78
2022-08-24T17:39:58.333Z,99812.97
2022-08-24T17:42:49.683Z,99817.47
2022-08-24T17:45:13.776Z,99817.66
2022-08-24T17:47:43.305Z,99815.50
2022-08-24T17:50:14.661Z,99816.91
2022-08-24T17:52:43.386Z,99816.81
2022-08-24T17:55:13.966Z,99821.53
2022-08-24T17:57:44.571Z,99818.25
2022-08-24T18:00:16.123Z,99822.50
2022-08-24T18:02:44.028Z,99821.06
2022-08-24T18:05:13.703Z,99829.63
2022-08-24T18:07:54.434Z,99836.09
2022-08-24T18:10:32.145Z,99838.16
2022-08-24T18:13:02.130Z,99831.25
2022-08-24T18:15:34.553Z,99836.88
2022-08-24T18:18:08.698Z,99834.44
2022-08-24T18:20:40.728Z,99842.66
2022-08-24T18:23:11.154Z,99841.13
2022-08-24T18:25:50.791Z,99844.97
2022-08-24T18:28:22.238Z,99836.25
2022-08-24T18:30:51.700Z,99837.31
2022-08-24T18:33:24.244Z,99848.09
2022-08-24T18:35:51.845Z,99840.16
2022-08-24T18:38:19.159Z,99846.69
2022-08-24T18:40:52.325Z,99847.78
2022-08-24T18:43:24.272Z,99852.50
2022-08-24T18:45:53.058Z,99855.41
2022-08-24T18:48:22.107Z,99851.81
2022-08-24T18:50:51.202Z,99859.06
2022-08-24T18:53:19.522Z,99865.50
2022-08-24T18:55:48.002Z,99864.63
2022-08-24T18:58:15.475Z,99871.13
2022-08-24T19:00:43.299Z,99866.84
2022-08-24T19:03:18.691Z,99875.78
2022-08-24T19:05:46.440Z,99875.06
2022-08-24T19:08:13.777Z,99883.16
2022-08-24T19:10:41.258Z,99889.38
2022-08-24T19:13:18.244Z,99876.16
2022-08-24T19:15:48.649Z,99888.88
2022-08-24T19:18:20.512Z,99892.53
2022-08-24T19:20:55.350Z,99894.47
2022-08-24T19:23:32.521Z,99895.31
2022-08-24T19:26:03.511Z,99901.66
2022-08-24T19:28:31.832Z,99901.56
2022-08-24T19:31:04.688Z,99889.16
2022-08-24T19:33:41.915Z,99901.78
2022-08-24T19:36:09.599Z,99892.16
2022-08-24T19:38:37.059Z,99895.84
2022-08-24T19:41:11.620Z,99896.88
2022-08-24T19:44:01.389Z,99897.78
2022-08-24T19:46:28.757Z,99898.69
2022-08-24T19:48:56.216Z,99908.63
2022-08-24T19:51:23.701Z,99907.78
2022-08-24T19:53:50.959Z,99901.59
2022-08-24T19:56:18.620Z,99903.31
2022-08-24T19:58:57.946Z,99908.63
2022-08-24T20:01:36.535Z,99907.72
2022-08-24T20:04:07.954Z,99906.88
2022-08-24T20:06:37.453Z,99901.59
2022-08-24T20:09:05.352Z,99911.47
2022-08-24T20:11:33.358Z,99915.97
2022-08-24T20:14:02.513Z,99915.09
2022-08-24T20:16:42.134Z,99922.31
2022-08-24T20:19:11.748Z,99928.56
2022-08-24T20:21:39.771Z,99919.69
2022-08-24T20:24:07.323Z,99931.38
2022-08-24T20:26:43.877Z,99928.75
2022-08-24T20:29:12.741Z,99930.63
2022-08-24T20:31:40.771Z,99928.00
2022-08-24T20:34:08.112Z,99934.31
2022-08-24T20:36:45.007Z,99933.47
2022-08-24T20:39:14.480Z,99936.16
2022-08-24T20:41:41.756Z,99930.88
2022-08-24T20:44:09.284Z,99937.13
2022-08-24T20:46:38.837Z,99939.84
2022-08-24T20:49:08.258Z,99939.91
2022-08-24T20:51:42.792Z,99934.63
2022-08-24T20:54:11.316Z,99939.13
2022-08-24T20:56:38.945Z,99945.34
2022-08-24T20:59:10.641Z,99943.59
2022-08-24T21:01:42.256Z,99944.50
2022-08-24T21:04:10.121Z,99949.84
2022-08-24T21:06:40.404Z,99949.84
2022-08-24T21:09:14.038Z,99948.97
2022-08-24T21:11:43.366Z,99949.00
2022-08-24T21:14:10.667Z,99949.06
2022-08-24T21:16:42.101Z,99948.22
2022-08-24T21:19:17.345Z,99955.34
2022-08-24T21:21:46.979Z,99951.84
2022-08-24T21:24:16.149Z,99963.47
2022-08-24T21:26:43.716Z,99951.88
2022-08-24T21:29:11.339Z,99965.25
2022-08-24T21:31:39.595Z,99964.38
2022-08-24T21:34:26.693Z,99959.03
2022-08-24T21:36:55.532Z,99959.03
2022-08-24T21:39:23.097Z,99966.19
2022-08-24T21:41:50.305Z,99957.25
2022-08-24T21:44:17.583Z,99965.25
2022-08-24T21:46:45.454Z,99963.53
2022-08-24T21:49:12.835Z,99967.97
2022-08-24T21:51:40.674Z,99966.22
2022-08-24T21:54:08.310Z,99964.47
2022-08-24T21:56:35.693Z,99964.47
2022-08-24T21:59:03.690Z,99958.25
2022-08-24T22:01:31.577Z,99966.28
2022-08-24T22:03:59.235Z,99959.19
2022-08-24T22:06:31.290Z,99969.88
2022-08-24T22:09:00.602Z,99969.88
2022-08-24T22:11:31.512Z,99965.41
2022-08-24T22:13:59.671Z,99965.41
2022-08-24T22:16:27.067Z,99970.75
2022-08-24T22:18:54.991Z,99971.69
2022-08-24T22:21:26.256Z,99969.03
2022-08-24T22:23:55.253Z,99976.13
2022-08-24T22:26:27.980Z,99976.16
2022-08-24T22:28:56.720Z,99972.63
2022-08-24T22:31:30.025Z,99968.16
2022-08-24T22:34:01.094Z,99969.06
2022-08-24T22:36:29.738Z,99969.97
2022-08-24T22:38:58.884Z,99970.00
2022-08-24T22:41:28.627Z,99978.88
2022-08-24T22:44:16.698Z,99976.22
2022-08-24T22:46:44.164Z,99975.34
2022-08-24T22:49:12.986Z,99979.78
2022-08-24T22:51:41.554Z,99979.78
2022-08-24T22:54:09.906Z,99984.22
2022-08-24T22:56:43.836Z,99978.03
2022-08-24T22:59:20.390Z,99982.47
2022-08-24T23:01:51.969Z,99984.22
2022-08-24T23:04:29.251Z,99985.09
2022-08-24T23:06:56.734Z,99977.09
2022-08-24T23:09:24.322Z,99983.31
2022-08-24T23:11:52.467Z,99988.66
2022-08-24T23:14:22.284Z,99984.19
2022-08-24T23:16:51.622Z,99994.00
2022-08-24T23:19:42.892Z,99987.75
2022-08-24T23:22:16.361Z,99989.53
2022-08-24T23:24:45.218Z,99984.19
2022-08-24T23:27:19.537Z,99987.78
2022-08-24T23:29:49.240Z,99986.00
2022-08-24T23:32:18.825Z,99983.34
2022-08-24T23:34:48.433Z,99990.44
2022-08-24T23:37:19.526Z,99989.53
2022-08-24T23:39:47.303Z,99981.53
2022-08-24T23:42:15.068Z,99984.19
2022-08-24T23:44:42.637Z,99980.66
2022-08-24T23:47:10.328Z,99978.00
2022-08-24T23:49:39.698Z,99981.53
2022-08-24T23:52:07.561Z,99973.53
2022-08-24T23:54:35.305Z,99980.66
2022-08-24T23:57:08.334Z,99974.44
2022-08-24T23:59:36.284Z,99979.75
